Terminal Aerodrome Forecast
Issued by NWS Indianapolis, IN

Home | Current Version | Previous Version | Text Only | Print | Product List | Glossary On
Versions: 1 2 3 4 5 6 7 8 9 10 11 12 13 14 15 16 17 18 19 20 21 22 23 24 25
446
FTUS43 KIND 262321
TAFIND
TAF
KIND 262321Z 2700/2806 14006KT P6SM FEW040 OVC250
     FM270600 VRB03KT P6SM VCTS OVC110CB
     FM271000 VRB03KT P6SM +SHRA VCTS OVC060CB
      TEMPO 2710/2712 1SM -TSRA OVC040CB
     FM271200 19004KT 6SM +TSRA OVC040CB
     FM271800 23004KT 5SM -TSRA OVC015CB=

USA.gov is the U.S. government's official web portal to all federal, state and local government web resources and services.